createdAt,value
2022-11-06T00:01:57.167Z,8.43
2022-11-06T00:05:19.358Z,10.10
2022-11-06T00:08:36.473Z,9.87
2022-11-06T00:11:40.637Z,9.90
2022-11-06T00:14:43.541Z,10.15
2022-11-06T00:17:50.557Z,7.80
2022-11-06T00:20:52.677Z,10.07
2022-11-06T00:23:56.511Z,7.37
2022-11-06T00:26:59.041Z,8.07
2022-11-06T00:30:01.087Z,7.97
2022-11-06T00:33:04.343Z,8.57
2022-11-06T00:36:09.214Z,8.50
2022-11-06T00:39:12.033Z,10.67
2022-11-06T00:42:14.455Z,8.37
2022-11-06T00:45:17.404Z,8.60
2022-11-06T00:48:20.897Z,9.37
2022-11-06T00:51:32.232Z,7.90
2022-11-06T00:54:34.378Z,8.43
2022-11-06T00:57:36.515Z,8.40
2022-11-06T01:00:38.678Z,9.30
2022-11-06T01:03:42.731Z,7.97
2022-11-06T01:06:49.893Z,8.53
2022-11-06T01:09:51.931Z,8.55
2022-11-06T01:12:55.141Z,8.57
2022-11-06T01:15:57.300Z,8.23
2022-11-06T01:18:59.922Z,8.23
2022-11-06T01:22:02.279Z,7.63
2022-11-06T01:25:05.890Z,7.97
2022-11-06T01:28:08.078Z,7.63
2022-11-06T01:31:15.753Z,6.27
2022-11-06T01:34:18.780Z,5.03
2022-11-06T01:37:26.545Z,6.33
2022-11-06T01:40:28.644Z,6.17
2022-11-06T01:43:59.611Z,6.20
2022-11-06T01:47:07.573Z,5.60
2022-11-06T01:50:12.472Z,6.13
2022-11-06T01:53:17.971Z,5.23
2022-11-06T01:56:21.767Z,6.67
2022-11-06T01:59:29.189Z,6.28
2022-11-06T02:02:31.814Z,5.90
2022-11-06T02:05:36.781Z,6.15
2022-11-06T02:08:38.964Z,4.57
2022-11-06T02:11:43.416Z,5.37
2022-11-06T02:15:02.069Z,4.38
2022-11-06T02:18:48.661Z,5.93
2022-11-06T02:22:10.320Z,5.70
2022-11-06T02:25:49.557Z,6.13
2022-11-06T02:29:07.245Z,5.47
2022-11-06T02:32:14.106Z,5.00
2022-11-06T02:35:34.539Z,5.20
2022-11-06T02:38:43.874Z,5.83
2022-11-06T02:41:47.941Z,4.83
2022-11-06T02:44:52.153Z,6.07
2022-11-06T02:47:56.735Z,8.77
2022-11-06T02:51:11.301Z,7.03
2022-11-06T02:54:15.805Z,6.37
2022-11-06T02:57:19.873Z,6.20
2022-11-06T03:00:28.873Z,6.70
2022-11-06T03:03:34.980Z,5.57
2022-11-06T03:06:42.272Z,6.73
2022-11-06T03:09:45.339Z,6.37
2022-11-06T03:13:17.774Z,6.67
2022-11-06T03:16:51.490Z,6.90
2022-11-06T03:20:04.119Z,6.73
2022-11-06T03:23:22.845Z,8.33
2022-11-06T03:26:37.401Z,6.70
2022-11-06T03:30:06.618Z,7.53
2022-11-06T03:33:32.170Z,7.97
2022-11-06T03:39:52.126Z,7.67
2022-11-06T03:42:58.064Z,7.67
2022-11-06T03:46:02.741Z,7.50
2022-11-06T03:49:13.969Z,6.78
2022-11-06T03:52:38.259Z,6.70
2022-11-06T03:55:52.229Z,5.70
2022-11-06T03:58:56.006Z,6.93
2022-11-06T04:02:00.663Z,6.72
2022-11-06T04:05:19.595Z,6.57
2022-11-06T04:08:43.646Z,5.77
2022-11-06T04:12:06.283Z,6.57
2022-11-06T04:15:13.306Z,7.17
2022-11-06T04:18:20.532Z,6.10
2022-11-06T04:21:41.121Z,7.60
2022-11-06T04:25:20.193Z,7.23
2022-11-06T04:28:41.160Z,6.73
2022-11-06T04:32:10.926Z,7.47
2022-11-06T04:35:24.290Z,7.33
2022-11-06T04:38:55.987Z,6.70
2022-11-06T04:42:37.500Z,7.07
2022-11-06T04:45:42.959Z,7.13
2022-11-06T04:48:47.089Z,8.03
2022-11-06T04:51:50.018Z,6.90
2022-11-06T04:54:54.887Z,8.13
2022-11-06T04:57:57.898Z,10.40
2022-11-06T05:01:00.259Z,8.47
2022-11-06T05:04:02.806Z,6.23
2022-11-06T05:07:04.922Z,6.93
2022-11-06T05:10:07.411Z,6.73
2022-11-06T05:13:10.136Z,6.00
2022-11-06T05:16:17.271Z,6.87
2022-11-06T05:19:19.943Z,6.50
2022-11-06T05:22:40.398Z,6.73
2022-11-06T05:25:43.207Z,7.00
2022-11-06T05:28:45.296Z,7.37
2022-11-06T05:31:47.705Z,7.43
2022-11-06T05:34:49.780Z,7.00
2022-11-06T05:37:58.237Z,8.17
2022-11-06T05:41:02.297Z,7.37
2022-11-06T05:44:04.407Z,6.50
2022-11-06T05:47:06.450Z,7.30
2022-11-06T05:50:09.611Z,7.00
2022-11-06T05:53:11.991Z,6.37
2022-11-06T05:56:14.267Z,6.37
2022-11-06T05:59:16.464Z,6.10
2022-11-06T06:02:19.119Z,6.27
2022-11-06T06:05:21.356Z,7.10
2022-11-06T06:08:24.178Z,6.20
2022-11-06T06:11:26.308Z,6.53
2022-11-06T06:14:28.591Z,6.37
2022-11-06T06:17:30.713Z,6.20
2022-11-06T06:20:34.342Z,6.00
2022-11-06T06:23:36.735Z,6.80
2022-11-06T06:26:39.065Z,6.23
2022-11-06T06:29:41.315Z,6.50
2022-11-06T06:32:43.776Z,6.70
2022-11-06T06:35:45.889Z,5.67
2022-11-06T06:38:48.016Z,6.47
2022-11-06T06:41:50.464Z,7.10
2022-11-06T06:44:52.481Z,6.07
2022-11-06T06:47:54.583Z,6.23
2022-11-06T06:51:00.902Z,6.27
2022-11-06T06:54:03.036Z,6.17
2022-11-06T06:57:05.818Z,5.73
2022-11-06T07:00:10.695Z,5.47
2022-11-06T07:03:13.417Z,6.27
2022-11-06T07:06:17.797Z,5.47
2022-11-06T07:09:19.984Z,7.22
2022-11-06T07:12:22.494Z,6.50
2022-11-06T07:15:24.605Z,6.73
2022-11-06T07:18:26.748Z,6.23
2022-11-06T07:21:31.005Z,7.63
2022-11-06T07:24:33.557Z,6.20
2022-11-06T07:27:37.653Z,7.75
2022-11-06T07:30:39.837Z,8.93
2022-11-06T07:33:41.989Z,6.87
2022-11-06T07:36:45.022Z,5.90
2022-11-06T07:39:52.083Z,6.60
2022-11-06T07:42:55.272Z,8.55
2022-11-06T07:46:07.170Z,6.88
2022-11-06T07:49:12.508Z,7.97
2022-11-06T07:52:15.610Z,7.57
2022-11-06T07:55:17.773Z,7.50
2022-11-06T07:58:22.138Z,9.88
2022-11-06T08:01:24.636Z,8.60
2022-11-06T08:04:27.133Z,8.45
2022-11-06T08:07:29.629Z,7.57
2022-11-06T08:10:32.026Z,7.97
2022-11-06T08:13:35.153Z,8.57
2022-11-06T08:16:37.474Z,7.67
2022-11-06T08:19:42.252Z,8.23
2022-11-06T08:22:44.561Z,7.10
2022-11-06T08:25:46.745Z,6.78
2022-11-06T08:28:48.949Z,7.03
2022-11-06T08:31:51.173Z,7.32
2022-11-06T08:34:53.252Z,7.75
2022-11-06T08:37:55.445Z,9.00
2022-11-06T08:40:57.826Z,7.00
2022-11-06T08:44:00.138Z,6.75
2022-11-06T08:47:02.260Z,6.40
2022-11-06T08:50:04.751Z,6.53
2022-11-06T08:53:08.017Z,7.70
2022-11-06T08:56:10.377Z,7.10
2022-11-06T08:59:12.430Z,7.07
2022-11-06T09:02:15.650Z,8.20
2022-11-06T09:05:18.710Z,10.15
2022-11-06T09:08:20.879Z,9.32
2022-11-06T09:11:23.490Z,10.55
2022-11-06T09:14:28.433Z,10.63
2022-11-06T09:17:30.491Z,11.25
2022-11-06T09:20:32.576Z,9.68
2022-11-06T09:23:37.816Z,8.13
2022-11-06T09:26:40.964Z,11.07
2022-11-06T09:29:44.649Z,11.52
2022-11-06T09:32:48.662Z,12.05
2022-11-06T09:35:50.908Z,10.77
2022-11-06T09:38:53.815Z,13.25
2022-11-06T09:42:01.461Z,11.65
2022-11-06T09:45:13.622Z,11.25
2022-11-06T09:48:20.417Z,9.90
2022-11-06T09:51:46.419Z,9.50
2022-11-06T09:55:02.995Z,10.15
2022-11-06T09:58:26.965Z,9.63
2022-11-06T10:01:56.609Z,9.27
2022-11-06T10:05:08.912Z,7.45
2022-11-06T10:08:19.083Z,10.00
2022-11-06T10:11:42.934Z,8.65
2022-11-06T10:14:58.185Z,7.03
2022-11-06T10:18:42.071Z,7.22
2022-11-06T10:22:19.938Z,7.60
2022-11-06T10:25:30.475Z,8.02
2022-11-06T10:28:57.277Z,7.43
2022-11-06T10:32:13.228Z,6.70
2022-11-06T10:35:31.552Z,5.63
2022-11-06T10:38:40.552Z,6.15
2022-11-06T10:41:46.581Z,6.10
2022-11-06T10:44:53.364Z,6.00
2022-11-06T10:48:17.389Z,6.85
2022-11-06T10:51:48.679Z,6.28
2022-11-06T10:55:26.177Z,6.00
2022-11-06T10:58:32.259Z,6.30
2022-11-06T11:01:34.891Z,7.47
2022-11-06T11:04:37.052Z,6.05
2022-11-06T11:07:39.566Z,5.38
2022-11-06T11:10:51.985Z,6.50
2022-11-06T11:14:05.759Z,4.45
2022-11-06T11:17:09.117Z,4.30
2022-11-06T11:20:33.502Z,3.75
2022-11-06T11:23:35.713Z,4.90
2022-11-06T11:26:48.553Z,4.25
2022-11-06T11:29:50.713Z,4.43
2022-11-06T11:32:53.856Z,4.60
2022-11-06T11:35:56.143Z,3.90
2022-11-06T11:38:58.185Z,3.95
2022-11-06T11:42:21.722Z,4.95
2022-11-06T11:45:24.021Z,3.80
2022-11-06T11:48:26.262Z,2.28
2022-11-06T11:51:43.625Z,2.05
2022-11-06T11:54:54.200Z,2.25
2022-11-06T11:57:59.460Z,2.00
2022-11-06T12:01:07.608Z,3.42
2022-11-06T12:04:40.545Z,3.92
2022-11-06T12:07:47.875Z,2.15
2022-11-06T12:10:50.553Z,2.67
2022-11-06T12:14:18.655Z,2.35
2022-11-06T12:17:23.934Z,3.05
2022-11-06T12:20:35.448Z,3.55
2022-11-06T12:23:47.511Z,2.53
2022-11-06T12:27:01.755Z,2.85
2022-11-06T12:30:13.377Z,4.35
2022-11-06T12:33:59.615Z,24.45
2022-11-06T12:37:10.284Z,11.60
2022-11-06T12:40:25.925Z,14.07
2022-11-06T12:43:48.652Z,26.77
2022-11-06T12:47:26.297Z,29.92
2022-11-06T12:50:41.961Z,22.10
2022-11-06T12:53:50.364Z,24.27
2022-11-06T12:57:09.677Z,21.13
2022-11-06T13:00:18.095Z,18.60
2022-11-06T13:03:58.306Z,22.10
2022-11-06T13:07:09.305Z,6.80
2022-11-06T13:10:34.325Z,10.40
2022-11-06T13:13:45.765Z,3.60
2022-11-06T13:17:11.330Z,14.23
2022-11-06T13:20:31.827Z,15.32
2022-11-06T13:23:37.944Z,10.55
2022-11-06T13:26:49.750Z,10.82
2022-11-06T13:29:59.297Z,5.93
2022-11-06T13:33:19.880Z,3.42
2022-11-06T13:36:22.964Z,2.60
2022-11-06T13:39:33.029Z,2.72
2022-11-06T13:42:44.741Z,1.88
2022-11-06T13:46:01.651Z,1.95
2022-11-06T13:49:23.767Z,2.03
2022-11-06T13:52:38.430Z,2.95
2022-11-06T13:56:04.493Z,2.78
2022-11-06T13:59:23.815Z,2.17
2022-11-06T14:02:48.509Z,2.63
2022-11-06T14:06:01.569Z,3.33
2022-11-06T14:09:25.472Z,3.65
2022-11-06T14:12:28.478Z,2.97
2022-11-06T14:15:39.594Z,2.95
2022-11-06T14:18:42.279Z,2.35
2022-11-06T14:21:48.936Z,3.08
2022-11-06T14:24:51.058Z,2.60
2022-11-06T14:27:53.009Z,2.78
2022-11-06T14:31:12.646Z,3.20
2022-11-06T14:34:34.899Z,4.05
2022-11-06T14:37:43.151Z,4.00
2022-11-06T14:40:45.787Z,9.20
2022-11-06T14:43:51.356Z,3.10
2022-11-06T14:46:59.849Z,3.50
2022-11-06T14:50:41.208Z,3.97
2022-11-06T14:53:54.183Z,3.38
2022-11-06T14:56:57.122Z,3.22
2022-11-06T14:59:59.590Z,2.83
2022-11-06T15:03:04.807Z,3.03
2022-11-06T15:06:17.295Z,2.90
2022-11-06T15:09:26.009Z,3.15
2022-11-06T15:13:05.318Z,3.95
2022-11-06T15:16:12.544Z,3.80
2022-11-06T15:19:23.953Z,3.90
2022-11-06T15:22:40.029Z,3.65
2022-11-06T15:26:03.217Z,3.33
2022-11-06T15:29:24.206Z,5.10
2022-11-06T15:32:30.771Z,4.47
2022-11-06T15:35:35.948Z,4.90
2022-11-06T15:38:42.896Z,4.68
2022-11-06T15:41:45.235Z,4.47
2022-11-06T15:44:48.545Z,5.45
2022-11-06T15:47:58.313Z,6.57
2022-11-06T15:51:00.839Z,5.68
2022-11-06T15:54:03.911Z,5.90
2022-11-06T15:57:27.899Z,5.82
2022-11-06T16:00:30.503Z,6.47
2022-11-06T16:03:49.693Z,4.57
2022-11-06T16:06:56.904Z,5.00
2022-11-06T16:09:59.419Z,5.32
2022-11-06T16:13:04.614Z,4.25
2022-11-06T16:16:39.096Z,3.75
2022-11-06T16:19:45.595Z,3.38
2022-11-06T16:22:47.845Z,2.80
2022-11-06T16:25:56.357Z,3.63
2022-11-06T16:29:00.124Z,3.78
2022-11-06T16:32:24.646Z,3.83
2022-11-06T16:35:35.446Z,3.85
2022-11-06T16:38:42.000Z,3.97
2022-11-06T16:42:03.669Z,3.88
2022-11-06T16:45:15.883Z,3.35
2022-11-06T16:48:25.182Z,3.25
2022-11-06T16:51:32.798Z,4.30
2022-11-06T16:54:35.221Z,4.50
2022-11-06T16:57:56.463Z,5.32
2022-11-06T17:01:04.950Z,5.55
2022-11-06T17:04:26.434Z,4.50
2022-11-06T17:07:28.772Z,7.45
2022-11-06T17:10:45.585Z,7.82
2022-11-06T17:13:49.646Z,6.80
2022-11-06T17:16:56.381Z,6.65
2022-11-06T17:19:58.380Z,7.50
2022-11-06T17:23:00.505Z,6.97
2022-11-06T17:26:18.977Z,8.32
2022-11-06T17:29:22.372Z,7.72
2022-11-06T17:32:24.744Z,6.95
2022-11-06T17:35:27.014Z,8.95
2022-11-06T17:38:29.116Z,6.38
2022-11-06T17:41:31.343Z,6.50
2022-11-06T17:44:36.382Z,6.78
2022-11-06T17:47:38.459Z,7.07
2022-11-06T17:50:59.389Z,6.55
2022-11-06T17:54:01.573Z,7.97
2022-11-06T17:57:06.067Z,7.35
2022-11-06T18:00:10.181Z,7.63
2022-11-06T18:03:20.605Z,9.65
2022-11-06T18:06:23.319Z,8.18
2022-11-06T18:09:25.971Z,7.88
2022-11-06T18:12:28.990Z,8.35
2022-11-06T18:15:34.903Z,8.05
2022-11-06T18:18:37.009Z,6.78
2022-11-06T18:21:39.292Z,7.03
2022-11-06T18:24:41.443Z,9.88
2022-11-06T18:27:43.571Z,10.45
2022-11-06T18:30:45.687Z,9.43
2022-11-06T18:33:48.124Z,10.35
2022-11-06T18:36:50.738Z,8.50
2022-11-06T18:39:53.064Z,8.63
2022-11-06T18:42:55.920Z,10.07
2022-11-06T18:45:58.111Z,9.45
2022-11-06T18:49:01.457Z,10.63
2022-11-06T18:52:03.564Z,10.93
2022-11-06T18:55:06.442Z,11.13
2022-11-06T18:58:08.745Z,10.52
2022-11-06T19:01:13.746Z,10.80
2022-11-06T19:04:16.378Z,9.98
2022-11-06T19:07:18.612Z,8.68
2022-11-06T19:10:20.990Z,9.98
2022-11-06T19:13:23.287Z,10.23
2022-11-06T19:16:25.400Z,10.38
2022-11-06T19:19:27.516Z,9.15
2022-11-06T19:22:31.132Z,8.95
2022-11-06T19:25:33.474Z,8.75
2022-11-06T19:28:36.073Z,9.73
2022-11-06T19:31:39.431Z,11.55
2022-11-06T19:34:41.912Z,10.98
2022-11-06T19:37:45.267Z,10.30
2022-11-06T19:41:01.759Z,11.35
2022-11-06T19:44:06.344Z,12.77
2022-11-06T19:47:11.227Z,12.48
2022-11-06T19:50:13.776Z,10.98
2022-11-06T19:53:22.407Z,26.35
2022-11-06T19:56:25.770Z,10.93
2022-11-06T19:59:28.182Z,13.25
2022-11-06T20:02:30.651Z,14.45
2022-11-06T20:05:33.172Z,13.43
2022-11-06T20:08:37.071Z,32.17
2022-11-06T20:11:39.691Z,12.30
2022-11-06T20:14:43.189Z,12.02
2022-11-06T20:17:45.591Z,11.23
2022-11-06T20:20:51.370Z,11.55
2022-11-06T20:23:54.104Z,11.43
2022-11-06T20:26:56.431Z,13.73
2022-11-06T20:30:01.529Z,13.30
2022-11-06T20:33:03.757Z,14.32
2022-11-06T20:36:11.645Z,14.05
2022-11-06T20:39:16.844Z,14.82
2022-11-06T20:42:20.194Z,12.80
2022-11-06T20:45:22.320Z,11.15
2022-11-06T20:48:25.333Z,9.82
2022-11-06T20:51:42.986Z,9.20
2022-11-06T20:54:52.327Z,8.85
2022-11-06T20:57:54.464Z,8.55
2022-11-06T21:01:50.962Z,7.55
2022-11-06T21:04:51.073Z,5.78
2022-11-06T21:07:53.229Z,6.18
2022-11-06T21:11:14.094Z,6.78
2022-11-06T21:14:16.302Z,5.97
2022-11-06T21:17:19.317Z,5.30
2022-11-06T21:20:23.019Z,5.82
2022-11-06T21:23:28.328Z,5.88
2022-11-06T21:26:34.166Z,5.22
2022-11-06T21:29:36.641Z,5.85
2022-11-06T21:32:38.960Z,4.82
2022-11-06T21:35:41.669Z,5.60
2022-11-06T21:38:44.952Z,4.97
2022-11-06T21:41:48.713Z,6.13
2022-11-06T21:44:54.296Z,5.82
2022-11-06T21:47:59.869Z,4.70
2022-11-06T21:51:11.507Z,5.40
2022-11-06T21:54:32.061Z,6.13
2022-11-06T21:57:34.432Z,5.90
2022-11-06T22:00:40.118Z,5.30
2022-11-06T22:03:43.042Z,5.88
2022-11-06T22:06:46.432Z,5.35
2022-11-06T22:09:49.126Z,7.43
2022-11-06T22:12:51.466Z,5.70
2022-11-06T22:15:53.676Z,4.97
2022-11-06T22:18:56.740Z,5.70
2022-11-06T22:21:59.410Z,5.90
2022-11-06T22:25:01.825Z,6.00
2022-11-06T22:28:04.253Z,7.50
2022-11-06T22:31:07.406Z,4.82
2022-11-06T22:34:11.788Z,6.28
2022-11-06T22:37:14.238Z,4.90
2022-11-06T22:40:16.387Z,4.75
2022-11-06T22:43:18.772Z,5.32
2022-11-06T22:46:23.747Z,4.70
2022-11-06T22:49:29.024Z,5.00
2022-11-06T22:52:34.694Z,5.80
2022-11-06T22:55:42.635Z,5.55
2022-11-06T23:02:35.598Z,5.88
2022-11-06T23:05:43.021Z,4.95
2022-11-06T23:08:47.067Z,5.13
2022-11-06T23:11:51.719Z,5.90
2022-11-06T23:14:54.047Z,4.10
2022-11-06T23:17:57.768Z,5.75
2022-11-06T23:21:00.310Z,5.63
2022-11-06T23:24:03.314Z,5.57
2022-11-06T23:27:07.312Z,5.63
2022-11-06T23:30:10.990Z,5.55
2022-11-06T23:33:13.543Z,5.60
2022-11-06T23:36:17.405Z,5.85
2022-11-06T23:39:20.053Z,5.32
2022-11-06T23:42:22.955Z,6.65
2022-11-06T23:45:44.030Z,6.28
2022-11-06T23:48:48.486Z,6.38
2022-11-06T23:51:52.047Z,5.00
2022-11-06T23:54:57.504Z,5.68
2022-11-06T23:58:01.107Z,5.72
